Time;durP1;ratioP1;P1;durP2;ratioP2;P2;SDS_P1;SDS_P2;PMS_P1;PMS_P2;Temp;Humidity;BMP_temperature;BMP_pressure;BME280_temperature;BME280_humidity;BME280_pressure;Samples;Min_cycle;Max_cycle;Signal;HPM_P1;HPM_P2
2021/07/01 00:00:04;;;;;;;16.93;14.33;;;17.30;1.00;;;;;;5105346;27;20466;-76
2021/07/01 00:02:30;;;;;;;19.33;15.10;;;17.30;1.00;;;;;;5105537;27;21006;-76
2021/07/01 00:04:58;;;;;;;19.20;14.83;;;17.30;1.00;;;;;;5106193;27;21588;-79
2021/07/01 00:07:25;;;;;;;17.80;14.63;;;17.30;1.00;;;;;;5109740;27;20611;-75
2021/07/01 00:09:51;;;;;;;17.43;15.30;;;17.30;1.00;;;;;;5119236;27;21257;-77
2021/07/01 00:12:18;;;;;;;17.00;15.10;;;17.30;1.00;;;;;;5103553;27;20461;-77
2021/07/01 00:14:45;;;;;;;18.93;15.07;;;17.30;1.00;;;;;;5104483;27;20467;-74
2021/07/01 00:17:13;;;;;;;17.47;15.63;;;17.20;1.00;;;;;;5106758;27;20454;-76
2021/07/01 00:19:39;;;;;;;20.10;14.33;;;17.20;1.00;;;;;;5104251;27;20539;-75
2021/07/01 00:22:06;;;;;;;16.80;14.40;;;17.20;1.00;;;;;;5103253;27;20446;-75
2021/07/01 00:24:33;;;;;;;17.70;15.10;;;17.20;1.00;;;;;;5108206;27;20463;-75
2021/07/01 00:26:59;;;;;;;21.07;15.93;;;17.20;1.00;;;;;;5106799;27;20451;-75
2021/07/01 00:29:26;;;;;;;15.83;14.07;;;17.20;1.00;;;;;;5106969;27;20816;-75
2021/07/01 00:31:53;;;;;;;16.30;14.57;;;17.20;1.00;;;;;;5102209;27;20465;-74
2021/07/01 00:34:21;;;;;;;18.27;15.00;;;17.10;1.00;;;;;;5106413;27;21034;-73
2021/07/01 00:36:47;;;;;;;15.50;13.30;;;17.10;1.00;;;;;;5107013;27;20562;-74
2021/07/01 00:39:15;;;;;;;15.53;13.90;;;17.10;1.00;;;;;;5102859;27;20456;-73
2021/07/01 00:41:42;;;;;;;14.70;13.00;;;17.10;1.00;;;;;;5100541;27;20474;-75
2021/07/01 00:44:08;;;;;;;15.00;12.97;;;17.20;1.00;;;;;;5103406;27;21012;-73
2021/07/01 00:46:35;;;;;;;13.27;11.60;;;17.20;1.00;;;;;;5109136;27;20432;-75
2021/07/01 00:49:02;;;;;;;14.63;12.57;;;17.20;1.00;;;;;;5110914;27;20474;-73
2021/07/01 00:51:30;;;;;;;14.10;11.77;;;17.10;1.00;;;;;;5111077;27;20600;-73
2021/07/01 00:53:57;;;;;;;13.80;12.30;;;17.10;1.00;;;;;;5108493;27;21029;-74
2021/07/01 00:56:24;;;;;;;14.30;12.70;;;17.10;1.00;;;;;;5109266;27;20428;-75
2021/07/01 00:58:54;;;;;;;15.20;12.90;;;17.10;1.00;;;;;;5106092;27;20450;-73
2021/07/01 01:01:21;;;;;;;16.23;13.10;;;17.10;1.00;;;;;;5109475;27;20435;-74
2021/07/01 01:03:48;;;;;;;13.27;11.90;;;17.10;1.00;;;;;;5101769;27;20457;-74
2021/07/01 01:06:15;;;;;;;15.30;11.87;;;17.10;1.00;;;;;;5103083;27;20793;-73
2021/07/01 01:08:43;;;;;;;13.93;12.13;;;17.10;1.00;;;;;;5108285;27;20542;-73
2021/07/01 01:13:47;;;;;;;13.10;11.80;;;17.10;1.00;;;;;;5181804;22;20464;-76
2021/07/01 01:16:13;;;;;;;12.80;11.50;;;17.10;1.00;;;;;;5088145;28;21001;-76
2021/07/01 01:18:40;;;;;;;12.23;11.03;;;17.00;1.00;;;;;;5084219;27;20459;-77
2021/07/01 01:21:11;;;;;;;14.67;11.60;;;17.10;1.00;;;;;;5085883;28;20452;-77
2021/07/01 01:23:39;;;;;;;12.50;11.07;;;17.10;1.00;;;;;;5086326;28;20467;-77
2021/07/01 01:26:06;;;;;;;14.77;11.60;;;17.10;1.00;;;;;;5085559;28;20451;-76
2021/07/01 01:28:33;;;;;;;14.60;12.43;;;17.10;1.00;;;;;;5090093;28;20503;-76
2021/07/01 01:31:00;;;;;;;12.07;10.77;;;17.10;1.00;;;;;;5089978;27;20457;-76
2021/07/01 01:33:27;;;;;;;15.07;12.97;;;17.10;1.00;;;;;;5089159;28;20472;-76
2021/07/01 01:35:54;;;;;;;14.27;12.40;;;17.10;1.00;;;;;;5083797;28;20446;-76
2021/07/01 01:38:20;;;;;;;15.40;13.30;;;17.10;1.00;;;;;;5085988;28;20467;-76
2021/07/01 01:40:49;;;;;;;18.87;14.20;;;17.10;1.00;;;;;;5087112;28;20453;-76
2021/07/01 01:43:16;;;;;;;16.83;14.23;;;17.10;1.00;;;;;;5084746;28;20863;-76
2021/07/01 01:45:43;;;;;;;15.47;13.87;;;17.10;1.00;;;;;;5087379;28;20480;-76
2021/07/01 01:48:10;;;;;;;16.07;13.00;;;17.00;1.00;;;;;;5085282;28;20467;-76
2021/07/01 01:50:37;;;;;;;14.57;12.83;;;17.10;1.00;;;;;;5084005;28;20460;-75
2021/07/01 01:53:04;;;;;;;15.87;12.90;;;17.00;1.00;;;;;;5087215;28;20479;-77
2021/07/01 01:55:31;;;;;;;13.67;12.27;;;17.00;1.00;;;;;;5086606;28;20471;-77
2021/07/01 01:57:59;;;;;;;16.20;11.77;;;17.00;1.00;;;;;;5086209;28;20451;-75
2021/07/01 02:00:27;;;;;;;12.63;10.97;;;17.00;1.00;;;;;;5083822;28;20442;-75
2021/07/01 02:02:54;;;;;;;12.73;10.13;;;16.90;1.00;;;;;;5085492;27;20545;-76
2021/07/01 02:05:21;;;;;;;11.93;10.63;;;16.90;1.00;;;;;;5087873;28;20426;-76
2021/07/01 02:07:48;;;;;;;12.53;10.33;;;16.90;1.00;;;;;;5085001;28;20451;-76
2021/07/01 02:10:17;;;;;;;13.30;11.40;;;16.90;1.00;;;;;;5083812;28;20441;-76
2021/07/01 02:12:43;;;;;;;10.33;9.00;;;16.90;1.00;;;;;;5085994;28;20973;-75
2021/07/01 02:15:14;;;;;;;11.97;10.33;;;16.80;1.00;;;;;;5091151;28;20451;-75
2021/07/01 02:17:41;;;;;;;11.37;10.07;;;16.90;1.00;;;;;;5089414;28;20436;-76
2021/07/01 02:20:10;;;;;;;12.30;9.90;;;16.90;1.00;;;;;;5086499;28;20710;-77
2021/07/01 02:22:37;;;;;;;14.80;9.83;;;16.90;1.00;;;;;;5084876;28;20452;-76
2021/07/01 02:25:05;;;;;;;11.53;9.70;;;16.90;1.00;;;;;;5086474;28;20467;-76
2021/07/01 02:27:32;;;;;;;12.80;10.80;;;16.80;1.00;;;;;;5086367;28;20444;-76
2021/07/01 02:29:59;;;;;;;12.40;10.43;;;16.80;1.00;;;;;;5085270;28;20451;-76
2021/07/01 02:32:27;;;;;;;13.17;10.30;;;16.80;1.00;;;;;;5082613;28;20845;-76
2021/07/01 02:34:56;;;;;;;11.73;10.27;;;16.80;1.00;;;;;;5081662;28;20422;-76
2021/07/01 02:37:22;;;;;;;10.13;8.97;;;16.90;1.00;;;;;;5087973;28;20442;-76
2021/07/01 02:39:49;;;;;;;10.07;9.07;;;16.90;1.00;;;;;;5086055;28;21221;-76
2021/07/01 02:42:16;;;;;;;10.40;9.30;;;16.90;1.00;;;;;;5084897;28;20436;-76
2021/07/01 02:44:42;;;;;;;9.07;8.17;;;16.90;1.00;;;;;;5086831;28;20436;-76
2021/07/01 02:47:09;;;;;;;8.97;7.60;;;16.90;1.00;;;;;;5082937;28;20440;-76
2021/07/01 02:49:37;;;;;;;11.97;7.20;;;16.90;1.00;;;;;;5087437;28;20519;-77
2021/07/01 02:52:04;;;;;;;7.60;6.53;;;16.90;1.00;;;;;;5085250;28;20460;-77
2021/07/01 02:54:31;;;;;;;8.53;7.30;;;16.80;1.00;;;;;;5086143;28;20464;-77
2021/07/01 02:56:58;;;;;;;6.67;5.97;;;16.80;1.00;;;;;;5085455;28;20444;-77
2021/07/01 02:59:24;;;;;;;7.67;6.73;;;16.80;1.00;;;;;;5083729;28;20473;-77
2021/07/01 03:01:51;;;;;;;6.53;5.80;;;16.80;1.00;;;;;;5085442;28;20465;-76
2021/07/01 03:04:18;;;;;;;6.00;5.50;;;16.80;1.00;;;;;;5083248;28;20474;-76
2021/07/01 03:06:46;;;;;;;5.23;4.73;;;16.80;1.00;;;;;;5083980;28;20416;-76
2021/07/01 03:09:13;;;;;;;4.50;4.10;;;16.80;1.00;;;;;;5085679;28;20462;-76
2021/07/01 03:11:40;;;;;;;7.57;5.30;;;16.70;1.00;;;;;;5081996;28;21134;-76
2021/07/01 03:14:07;;;;;;;5.70;5.00;;;16.70;1.00;;;;;;5086607;28;20468;-76
2021/07/01 03:16:35;;;;;;;6.53;4.93;;;16.80;1.00;;;;;;5084208;28;20458;-76
2021/07/01 03:19:02;;;;;;;7.00;5.27;;;16.80;1.00;;;;;;5084620;28;20448;-76
2021/07/01 03:21:28;;;;;;;6.30;5.57;;;16.80;1.00;;;;;;5087990;28;20498;-76
2021/07/01 03:23:56;;;;;;;7.67;6.87;;;16.80;1.00;;;;;;5085913;28;20478;-76
2021/07/01 03:26:23;;;;;;;6.50;5.90;;;16.80;1.00;;;;;;5080328;28;20451;-76
2021/07/01 03:28:50;;;;;;;8.33;5.90;;;16.80;1.00;;;;;;5086854;28;20569;-76
2021/07/01 03:31:16;;;;;;;5.37;4.73;;;16.80;1.00;;;;;;5087190;28;20458;-76
2021/07/01 03:33:43;;;;;;;6.57;5.17;;;16.80;1.00;;;;;;5091247;28;20471;-76
2021/07/01 03:36:10;;;;;;;6.23;4.03;;;16.80;1.00;;;;;;5090082;28;20541;-76
2021/07/01 03:38:36;;;;;;;3.63;3.20;;;16.80;1.00;;;;;;5089121;28;20446;-76
2021/07/01 03:41:05;;;;;;;3.20;2.90;;;16.70;1.00;;;;;;5088014;28;20478;-76
2021/07/01 03:43:34;;;;;;;2.53;2.30;;;16.60;1.00;;;;;;5087695;28;20466;-76
2021/07/01 03:46:00;;;;;;;2.60;2.20;;;16.50;1.00;;;;;;5088915;28;20515;-75
2021/07/01 03:48:27;;;;;;;2.90;2.70;;;16.40;1.00;;;;;;5087179;28;20434;-76
2021/07/01 03:50:54;;;;;;;4.40;3.80;;;16.40;1.00;;;;;;5089147;28;20565;-76
2021/07/01 03:53:20;;;;;;;3.03;2.77;;;16.40;1.00;;;;;;5085940;28;21179;-76
2021/07/01 03:55:47;;;;;;;2.93;2.40;;;16.40;1.00;;;;;;5088523;28;20447;-77
2021/07/01 03:58:15;;;;;;;2.87;2.20;;;16.30;1.00;;;;;;5085084;28;20439;-77
2021/07/01 04:00:41;;;;;;;4.40;2.97;;;16.20;1.00;;;;;;5089043;28;20488;-76
2021/07/01 04:03:08;;;;;;;2.23;1.93;;;16.20;1.00;;;;;;5088434;28;20459;-76
2021/07/01 04:05:35;;;;;;;2.37;2.10;;;16.10;1.00;;;;;;5086475;28;20434;-77
2021/07/01 04:08:01;;;;;;;3.33;2.33;;;16.10;1.00;;;;;;5088362;28;20512;-77
2021/07/01 04:10:28;;;;;;;3.27;2.50;;;16.00;1.00;;;;;;5086347;28;21243;-78
2021/07/01 04:12:55;;;;;;;4.20;2.30;;;16.00;1.00;;;;;;5086081;28;20466;-77
2021/07/01 04:15:23;;;;;;;5.87;3.10;;;16.00;1.00;;;;;;5087269;28;21294;-77
2021/07/01 04:17:49;;;;;;;2.53;2.33;;;16.00;1.00;;;;;;5089292;28;20451;-76
2021/07/01 04:20:17;;;;;;;3.13;2.20;;;16.00;1.00;;;;;;5088030;28;20454;-76
2021/07/01 04:22:44;;;;;;;4.40;2.43;;;16.00;1.00;;;;;;5088606;28;20475;-76
2021/07/01 04:25:12;;;;;;;2.80;1.97;;;16.00;1.00;;;;;;5088283;28;20447;-75
2021/07/01 04:27:38;;;;;;;2.97;2.67;;;16.00;1.00;;;;;;5089148;28;20481;-76
2021/07/01 04:30:07;;;;;;;1.97;1.70;;;15.90;1.00;;;;;;5087317;28;20447;-76
2021/07/01 04:32:35;;;;;;;3.97;2.37;;;16.00;1.00;;;;;;5083881;28;20786;-76
2021/07/01 04:35:01;;;;;;;3.13;2.27;;;15.90;1.00;;;;;;5088430;28;20457;-76
2021/07/01 04:37:28;;;;;;;2.80;2.30;;;16.00;1.00;;;;;;5089180;28;21196;-75
2021/07/01 04:39:55;;;;;;;3.00;2.43;;;15.90;1.00;;;;;;5093062;28;20422;-76
2021/07/01 04:42:21;;;;;;;2.90;2.60;;;15.90;1.00;;;;;;5086081;28;20491;-76
2021/07/01 04:44:48;;;;;;;3.27;2.83;;;15.90;1.00;;;;;;5087400;28;20894;-75
2021/07/01 04:47:15;;;;;;;3.03;2.73;;;15.90;1.00;;;;;;5087084;28;20442;-76
2021/07/01 04:49:43;;;;;;;2.37;2.03;;;15.90;1.00;;;;;;5084548;28;20479;-76
2021/07/01 04:52:09;;;;;;;2.10;1.70;;;15.90;1.00;;;;;;5086023;28;20439;-75
2021/07/01 04:54:36;;;;;;;2.70;2.00;;;16.00;1.00;;;;;;5088103;28;20477;-76
2021/07/01 04:57:03;;;;;;;3.00;2.50;;;15.90;1.00;;;;;;5085713;27;21040;-76
2021/07/01 04:59:30;;;;;;;3.70;1.90;;;16.00;1.00;;;;;;5082920;28;20938;-76
2021/07/01 05:01:57;;;;;;;3.33;1.93;;;15.90;1.00;;;;;;5086475;28;20972;-76
2021/07/01 05:04:24;;;;;;;2.60;1.70;;;15.90;1.00;;;;;;5087050;28;20438;-76
2021/07/01 05:06:51;;;;;;;3.07;1.60;;;15.90;1.00;;;;;;5086608;28;20431;-77
2021/07/01 05:09:18;;;;;;;1.97;1.60;;;15.80;1.00;;;;;;5085506;28;21010;-76
2021/07/01 05:11:45;;;;;;;2.70;1.30;;;15.80;1.00;;;;;;5087086;28;20439;-76
2021/07/01 05:14:11;;;;;;;2.20;1.60;;;15.80;1.00;;;;;;5084660;28;20499;-77
2021/07/01 05:16:38;;;;;;;2.70;1.50;;;15.80;1.00;;;;;;5086556;28;20439;-76
2021/07/01 05:19:05;;;;;;;1.93;1.60;;;15.70;1.00;;;;;;5084526;28;20462;-76
2021/07/01 05:21:31;;;;;;;3.10;1.53;;;15.70;1.00;;;;;;5086427;28;20428;-77
2021/07/01 05:24:00;;;;;;;1.80;1.60;;;15.60;1.00;;;;;;5085832;28;20948;-77
2021/07/01 05:26:26;;;;;;;2.10;1.50;;;15.60;1.00;;;;;;5083486;28;20498;-77
2021/07/01 05:28:53;;;;;;;3.80;2.30;;;15.60;1.00;;;;;;5087730;28;20952;-77
2021/07/01 05:31:20;;;;;;;1.97;1.50;;;15.60;1.00;;;;;;5088274;28;20958;-75
2021/07/01 05:33:46;;;;;;;2.27;1.27;;;15.60;1.00;;;;;;5084817;28;20467;-77
2021/07/01 05:36:13;;;;;;;2.83;1.30;;;15.60;1.00;;;;;;5087836;28;21166;-77
2021/07/01 05:38:39;;;;;;;2.80;1.30;;;15.60;1.00;;;;;;5086161;28;20489;-76
2021/07/01 05:41:07;;;;;;;2.37;1.30;;;15.60;1.00;;;;;;5088227;28;20981;-77
2021/07/01 05:43:34;;;;;;;2.90;1.50;;;15.50;1.00;;;;;;5082629;28;20773;-77
2021/07/01 05:46:02;;;;;;;2.20;1.87;;;15.60;1.00;;;;;;5088774;28;20447;-77
2021/07/01 05:48:29;;;;;;;2.90;1.40;;;15.60;1.00;;;;;;5087599;28;20446;-78
2021/07/01 05:51:00;;;;;;;1.57;1.13;;;15.60;1.00;;;;;;5087484;28;20459;-77
2021/07/01 05:53:30;;;;;;;2.40;1.30;;;15.70;1.00;;;;;;5085280;28;20458;-78
2021/07/01 05:55:57;;;;;;;1.83;1.27;;;15.70;1.00;;;;;;5086159;28;20481;-77
2021/07/01 05:58:25;;;;;;;1.57;0.90;;;15.50;1.00;;;;;;5086442;28;20457;-77
2021/07/01 06:00:51;;;;;;;3.13;1.20;;;15.50;1.00;;;;;;5088452;28;20415;-78
2021/07/01 06:03:18;;;;;;;2.23;1.30;;;15.50;1.00;;;;;;5084648;28;20499;-77
2021/07/01 06:05:48;;;;;;;3.80;1.53;;;15.50;1.00;;;;;;5085326;28;20446;-77
2021/07/01 06:08:15;;;;;;;1.80;1.33;;;15.50;1.00;;;;;;5087695;28;20459;-77
2021/07/01 06:10:43;;;;;;;1.50;1.20;;;15.50;1.00;;;;;;5082161;28;20442;-75
2021/07/01 06:13:10;;;;;;;1.70;1.00;;;15.50;1.00;;;;;;5084786;28;20446;-75
2021/07/01 06:15:38;;;;;;;2.00;1.20;;;15.40;1.00;;;;;;5085016;28;20469;-75
2021/07/01 06:18:05;;;;;;;1.60;1.20;;;15.40;1.00;;;;;;5086331;28;21177;-77
2021/07/01 06:20:33;;;;;;;1.97;1.40;;;15.40;1.00;;;;;;5085953;28;21150;-76
2021/07/01 06:22:59;;;;;;;4.40;3.03;;;15.50;1.00;;;;;;5084992;28;20423;-76
2021/07/01 06:25:26;;;;;;;2.53;1.53;;;15.50;1.00;;;;;;5086428;28;20447;-76
2021/07/01 06:27:53;;;;;;;1.63;1.30;;;15.50;1.00;;;;;;5085874;28;20969;-76
2021/07/01 06:30:20;;;;;;;2.17;1.47;;;15.40;1.00;;;;;;5085968;28;20947;-76
2021/07/01 06:32:51;;;;;;;1.70;1.20;;;15.40;1.00;;;;;;5085658;28;20446;-76
2021/07/01 06:35:20;;;;;;;1.57;1.30;;;15.30;1.00;;;;;;5085409;28;20482;-77
2021/07/01 06:37:48;;;;;;;2.90;1.40;;;15.30;1.00;;;;;;5085760;28;20458;-76
2021/07/01 06:40:15;;;;;;;1.80;1.50;;;15.30;1.00;;;;;;5084936;28;20443;-76
2021/07/01 06:42:45;;;;;;;2.33;1.30;;;15.30;1.00;;;;;;5081186;28;20451;-76
2021/07/01 06:45:13;;;;;;;2.40;1.60;;;15.30;1.00;;;;;;5086811;28;20445;-77
2021/07/01 06:47:41;;;;;;;2.20;1.63;;;15.20;1.00;;;;;;5083881;28;20557;-77
2021/07/01 06:50:11;;;;;;;1.97;1.80;;;15.20;1.00;;;;;;5082116;28;20473;-76
2021/07/01 06:52:38;;;;;;;3.53;1.93;;;15.20;1.00;;;;;;5087303;28;20453;-75
2021/07/01 06:55:06;;;;;;;2.50;1.43;;;15.20;1.00;;;;;;5084042;28;21454;-75
2021/07/01 06:57:34;;;;;;;2.00;1.70;;;15.20;1.00;;;;;;5085894;28;20474;-76
2021/07/01 07:00:01;;;;;;;3.27;2.00;;;15.20;1.00;;;;;;5083872;28;20446;-76
2021/07/01 07:02:32;;;;;;;2.50;1.70;;;15.20;1.00;;;;;;5084516;28;20463;-75
2021/07/01 07:05:01;;;;;;;2.80;1.90;;;15.20;1.00;;;;;;5085862;28;20838;-76
2021/07/01 07:07:30;;;;;;;2.30;1.73;;;15.30;1.00;;;;;;5090359;28;20428;-75
2021/07/01 07:10:00;;;;;;;3.10;2.43;;;15.30;1.00;;;;;;5088629;28;20437;-75
2021/07/01 07:12:27;;;;;;;2.50;1.87;;;15.30;1.00;;;;;;5088065;28;20466;-76
2021/07/01 07:14:54;;;;;;;3.17;1.90;;;15.20;1.00;;;;;;5086377;28;20948;-76
2021/07/01 07:17:21;;;;;;;2.30;1.77;;;15.20;1.00;;;;;;5087611;28;20459;-76
2021/07/01 07:19:48;;;;;;;3.10;2.43;;;15.10;1.00;;;;;;5089671;28;20441;-75
2021/07/01 07:22:18;;;;;;;2.70;1.90;;;15.10;1.00;;;;;;5102468;27;20550;-76
2021/07/01 07:24:52;;;;;;;2.97;2.00;;;15.10;1.00;;;;;;5086464;28;20474;-76
2021/07/01 07:27:26;;;;;;;3.10;2.27;;;15.10;1.00;;;;;;5090709;28;20474;-77
2021/07/01 07:29:53;;;;;;;2.90;1.97;;;15.10;1.00;;;;;;5088693;28;20442;-76
2021/07/01 07:32:23;;;;;;;2.37;1.90;;;15.10;1.00;;;;;;5087385;28;20472;-76
2021/07/01 07:34:51;;;;;;;2.33;2.13;;;15.10;1.00;;;;;;5089254;28;20467;-75
2021/07/01 07:37:18;;;;;;;2.60;2.33;;;15.10;1.00;;;;;;5087526;28;20450;-76
2021/07/01 07:39:47;;;;;;;4.27;3.87;;;15.10;1.00;;;;;;5093577;28;20489;-77
2021/07/01 07:42:14;;;;;;;3.10;2.80;;;15.10;1.00;;;;;;5091399;28;20454;-76
2021/07/01 07:44:42;;;;;;;2.70;2.50;;;15.10;1.00;;;;;;5088656;28;20455;-76
2021/07/01 07:47:11;;;;;;;2.60;1.80;;;15.10;1.00;;;;;;5095735;28;20411;-76
2021/07/01 07:49:37;;;;;;;2.30;1.90;;;15.10;1.00;;;;;;5095955;28;20430;-77
2021/07/01 07:52:08;;;;;;;3.30;2.23;;;15.20;1.00;;;;;;5088832;28;20454;-76
2021/07/01 07:54:42;;;;;;;2.23;2.03;;;15.20;1.00;;;;;;5090435;28;20994;-76
2021/07/01 07:57:10;;;;;;;2.03;1.80;;;15.20;1.00;;;;;;5089408;28;20527;-76
2021/07/01 07:59:39;;;;;;;5.20;2.13;;;15.20;1.00;;;;;;5089243;28;20427;-77
2021/07/01 08:02:08;;;;;;;3.17;2.87;;;15.20;1.00;;;;;;5091175;28;20572;-76
2021/07/01 08:04:35;;;;;;;2.00;1.83;;;15.20;1.00;;;;;;5086434;28;20454;-77
2021/07/01 08:07:04;;;;;;;3.03;2.20;;;15.20;1.00;;;;;;5089122;28;20447;-76
2021/07/01 08:09:31;;;;;;;2.37;1.80;;;15.30;1.00;;;;;;5087057;28;20462;-76
2021/07/01 08:11:58;;;;;;;2.60;2.20;;;15.30;1.00;;;;;;5087264;28;20452;-76
2021/07/01 08:14:26;;;;;;;2.13;1.70;;;15.30;1.00;;;;;;5089530;28;20451;-76
2021/07/01 08:16:53;;;;;;;2.30;1.80;;;15.20;1.00;;;;;;5087853;28;20458;-76
2021/07/01 08:19:20;;;;;;;3.30;2.03;;;15.20;1.00;;;;;;5088454;28;20522;-76
2021/07/01 08:21:48;;;;;;;2.37;2.07;;;15.20;1.00;;;;;;5090399;28;20524;-76
2021/07/01 08:24:14;;;;;;;1.93;1.73;;;15.30;1.00;;;;;;5087596;28;20446;-76
2021/07/01 08:26:41;;;;;;;1.73;1.60;;;15.20;1.00;;;;;;5086135;28;20446;-76
2021/07/01 08:29:10;;;;;;;2.60;1.93;;;15.20;1.00;;;;;;5088243;28;20506;-76
2021/07/01 08:31:46;;;;;;;2.17;1.43;;;15.20;1.00;;;;;;5088480;28;20462;-76
2021/07/01 08:34:13;;;;;;;2.10;1.90;;;15.20;1.00;;;;;;5085959;28;20443;-76
2021/07/01 08:36:42;;;;;;;2.53;2.33;;;15.20;1.00;;;;;;5088269;28;20831;-75
2021/07/01 08:39:08;;;;;;;2.27;2.07;;;15.20;1.00;;;;;;5091042;28;20916;-75
2021/07/01 08:41:35;;;;;;;2.43;2.23;;;15.20;1.00;;;;;;5086322;28;20534;-75
2021/07/01 08:44:06;;;;;;;2.23;2.03;;;15.10;1.00;;;;;;5087008;28;20543;-75
2021/07/01 08:46:49;;;;;;;1.90;1.73;;;15.20;1.00;;;;;;5088215;28;20419;-75
2021/07/01 08:49:31;;;;;;;2.80;2.60;;;15.20;1.00;;;;;;5087572;28;20442;-75
2021/07/01 08:52:03;;;;;;;2.93;2.20;;;15.20;1.00;;;;;;5086251;28;20463;-75
2021/07/01 08:54:32;;;;;;;2.67;2.37;;;15.20;1.00;;;;;;5087673;28;20454;-77
2021/07/01 08:57:01;;;;;;;2.50;2.30;;;15.20;1.00;;;;;;5089456;28;20554;-77
2021/07/01 08:59:37;;;;;;;3.13;2.40;;;15.20;1.00;;;;;;5085604;28;20431;-77
2021/07/01 09:02:09;;;;;;;2.40;1.90;;;15.30;1.00;;;;;;5089409;28;20457;-75
2021/07/01 09:04:49;;;;;;;2.43;2.23;;;15.40;1.00;;;;;;5084135;28;20539;-75
2021/07/01 09:07:21;;;;;;;4.03;2.97;;;15.30;1.00;;;;;;5085114;28;20454;-76
2021/07/01 09:09:54;;;;;;;1.70;1.60;;;15.30;1.00;;;;;;5083031;28;20504;-77
2021/07/01 09:12:23;;;;;;;3.17;2.13;;;15.30;1.00;;;;;;5087402;28;20462;-76
2021/07/01 09:14:56;;;;;;;1.70;1.60;;;15.30;1.00;;;;;;5085659;28;20486;-76
2021/07/01 09:17:26;;;;;;;2.10;1.83;;;15.40;1.00;;;;;;5083110;28;20583;-77
2021/07/01 09:19:55;;;;;;;2.20;2.00;;;15.30;1.00;;;;;;5087894;28;20441;-76
2021/07/01 09:22:23;;;;;;;3.50;2.57;;;15.20;1.00;;;;;;5090050;28;20449;-77
2021/07/01 09:24:50;;;;;;;2.70;2.50;;;15.10;1.00;;;;;;5082670;28;20439;-76
2021/07/01 09:27:18;;;;;;;3.10;2.60;;;15.10;1.00;;;;;;5087310;28;20504;-76
2021/07/01 09:29:47;;;;;;;4.60;2.87;;;15.10;1.00;;;;;;5085518;28;20435;-75
2021/07/01 09:32:15;;;;;;;2.77;2.57;;;15.10;1.00;;;;;;5090125;28;20449;-76
2021/07/01 09:34:45;;;;;;;3.20;2.90;;;15.10;1.00;;;;;;5088191;28;20442;-76
2021/07/01 09:37:13;;;;;;;2.73;2.43;;;15.10;1.00;;;;;;5086673;27;20467;-75
2021/07/01 09:39:40;;;;;;;2.90;2.70;;;15.10;1.00;;;;;;5088603;28;20434;-76
2021/07/01 09:42:08;;;;;;;3.30;3.00;;;15.10;1.00;;;;;;5087449;28;20530;-76
2021/07/01 09:44:36;;;;;;;8.20;7.43;;;15.10;1.00;;;;;;5093257;28;20544;-76
2021/07/01 09:47:07;;;;;;;3.43;3.13;;;15.10;1.00;;;;;;5086647;28;20443;-78
2021/07/01 09:49:36;;;;;;;3.47;3.17;;;15.10;1.00;;;;;;5088340;28;20422;-77
2021/07/01 09:52:06;;;;;;;3.67;3.27;;;15.10;1.00;;;;;;5088711;28;21429;-76
2021/07/01 09:54:35;;;;;;;3.97;3.67;;;15.10;1.00;;;;;;5084333;28;20450;-78
2021/07/01 09:57:07;;;;;;;4.30;3.80;;;15.00;1.00;;;;;;5085969;28;20469;-78
2021/07/01 09:59:42;;;;;;;3.97;3.67;;;15.10;1.00;;;;;;5089111;28;21420;-77
2021/07/01 10:02:20;;;;;;;4.70;4.30;;;15.00;1.00;;;;;;5084858;28;20469;-77
2021/07/01 10:04:48;;;;;;;5.63;5.13;;;15.00;1.00;;;;;;5086419;28;20493;-78
2021/07/01 10:07:18;;;;;;;120.93;99.93;;;15.00;1.00;;;;;;5092229;28;20423;-77
2021/07/01 10:09:46;;;;;;;5.30;4.80;;;15.00;1.00;;;;;;5082307;28;20427;-77
2021/07/01 10:12:15;;;;;;;5.83;5.33;;;15.10;1.00;;;;;;5087196;28;20482;-77
2021/07/01 10:14:43;;;;;;;7.60;6.90;;;15.10;1.00;;;;;;5085459;28;20451;-77
2021/07/01 10:17:11;;;;;;;5.30;4.90;;;15.10;1.00;;;;;;5083507;28;20938;-77
2021/07/01 10:19:38;;;;;;;6.33;5.73;;;15.10;1.00;;;;;;5088248;28;20477;-76
2021/07/01 10:22:06;;;;;;;5.70;5.20;;;15.00;1.00;;;;;;5085951;28;20928;-77
2021/07/01 10:24:47;;;;;;;7.10;6.50;;;14.90;1.00;;;;;;5086789;28;21273;-76
2021/07/01 10:27:26;;;;;;;6.60;6.00;;;14.90;1.00;;;;;;5085349;28;21350;-78
2021/07/01 10:29:56;;;;;;;6.87;6.20;;;14.80;1.00;;;;;;5085921;28;20450;-76
2021/07/01 10:32:35;;;;;;;7.20;6.50;;;14.90;1.00;;;;;;5083903;28;20449;-78
2021/07/01 10:35:02;;;;;;;6.80;6.30;;;14.80;1.00;;;;;;5085150;28;20451;-79
2021/07/01 10:37:29;;;;;;;7.80;6.67;;;14.80;1.00;;;;;;5086496;28;20423;-77
2021/07/01 10:39:57;;;;;;;6.50;6.00;;;14.90;1.00;;;;;;5082963;28;20534;-76
2021/07/01 10:42:24;;;;;;;6.77;6.17;;;14.80;1.00;;;;;;5084350;28;20419;-75
2021/07/01 10:44:50;;;;;;;7.90;7.20;;;14.90;1.00;;;;;;5083970;28;20584;-77
2021/07/01 10:47:25;;;;;;;7.80;7.10;;;14.90;1.00;;;;;;5089500;28;20480;-77
2021/07/01 10:49:52;;;;;;;7.50;6.90;;;14.90;1.00;;;;;;5091159;28;20466;-76
2021/07/01 10:52:20;;;;;;;8.53;7.83;;;14.90;1.00;;;;;;5100571;28;20907;-79
2021/07/01 10:55:07;;;;;;;7.50;6.90;;;14.90;1.00;;;;;;5093620;28;21004;-77
2021/07/01 10:57:35;;;;;;;8.33;7.53;;;14.90;1.00;;;;;;5085227;28;20462;-77
2021/07/01 11:00:02;;;;;;;8.13;7.43;;;15.00;1.00;;;;;;5086014;28;20458;-77
2021/07/01 11:02:30;;;;;;;8.03;7.33;;;15.10;1.00;;;;;;5085344;28;20601;-77
2021/07/01 11:04:58;;;;;;;8.70;7.90;;;15.10;1.00;;;;;;5079731;28;20447;-76
2021/07/01 11:07:26;;;;;;;8.23;7.53;;;15.10;1.00;;;;;;5082706;28;20534;-77
2021/07/01 11:09:56;;;;;;;9.30;8.40;;;15.10;1.00;;;;;;5087948;28;20813;-76
2021/07/01 11:12:26;;;;;;;9.77;8.10;;;15.00;1.00;;;;;;5080371;28;21318;-76
2021/07/01 11:14:55;;;;;;;8.13;7.33;;;15.10;1.00;;;;;;5087401;28;20524;-77
2021/07/01 11:17:36;;;;;;;9.70;8.90;;;15.10;1.00;;;;;;5082805;28;20479;-77
2021/07/01 11:20:14;;;;;;;8.73;8.03;;;15.20;1.00;;;;;;5083238;28;20501;-78
2021/07/01 11:22:46;;;;;;;8.37;7.67;;;15.20;1.00;;;;;;5083714;28;20445;-76
2021/07/01 11:25:28;;;;;;;8.70;8.00;;;15.30;1.00;;;;;;5086465;28;20448;-77
2021/07/01 11:28:14;;;;;;;9.17;8.27;;;15.30;1.00;;;;;;5082921;28;20462;-76
2021/07/01 11:30:48;;;;;;;9.90;9.00;;;15.30;1.00;;;;;;5082815;28;21287;-78
2021/07/01 11:33:16;;;;;;;8.93;8.23;;;15.30;1.00;;;;;;5081583;28;20454;-77
2021/07/01 11:35:43;;;;;;;9.20;8.40;;;15.30;1.00;;;;;;5079282;28;20464;-76
2021/07/01 11:38:30;;;;;;;9.43;8.60;;;15.20;1.00;;;;;;5086301;28;20450;-77
2021/07/01 11:41:00;;;;;;;9.43;8.63;;;15.10;1.00;;;;;;5084197;28;20435;-76
2021/07/01 11:43:29;;;;;;;11.70;10.50;;;15.10;1.00;;;;;;5084258;28;20479;-76
2021/07/01 11:45:56;;;;;;;10.30;9.50;;;15.20;1.00;;;;;;5083375;28;20447;-76
2021/07/01 11:48:26;;;;;;;11.20;10.20;;;15.30;1.00;;;;;;5082389;28;20541;-77
2021/07/01 11:50:55;;;;;;;11.30;10.30;;;15.30;1.00;;;;;;5086507;28;21043;-76
2021/07/01 11:53:23;;;;;;;11.27;10.27;;;15.30;1.00;;;;;;5086417;28;21073;-76
2021/07/01 11:55:52;;;;;;;10.90;10.00;;;15.30;1.00;;;;;;5088887;28;21059;-77
2021/07/01 11:58:20;;;;;;;10.97;10.07;;;15.30;1.00;;;;;;5088664;28;20462;-76
2021/07/01 12:00:48;;;;;;;11.03;10.13;;;15.40;1.00;;;;;;5088595;28;20457;-76
2021/07/01 12:03:14;;;;;;;17.90;13.13;;;15.40;1.00;;;;;;5087938;28;20454;-76
2021/07/01 12:05:44;;;;;;;10.87;9.87;;;15.40;1.00;;;;;;5088500;28;21329;-76
2021/07/01 12:08:12;;;;;;;14.13;12.73;;;15.40;1.00;;;;;;5086649;28;20880;-77
2021/07/01 12:10:38;;;;;;;10.63;9.73;;;15.40;1.00;;;;;;5086586;28;20439;-77
2021/07/01 12:13:39;;;;;;;12.57;11.37;;;15.50;1.00;;;;;;5087789;28;20474;-76
2021/07/01 12:16:09;;;;;;;11.63;10.53;;;15.40;1.00;;;;;;5087644;28;21475;-77
2021/07/01 12:18:50;;;;;;;11.97;10.83;;;15.40;1.00;;;;;;5088888;28;20543;-76
2021/07/01 12:21:18;;;;;;;11.83;10.73;;;15.50;1.00;;;;;;5089647;28;20558;-77
2021/07/01 12:23:46;;;;;;;11.30;10.30;;;15.60;1.00;;;;;;5087178;28;20450;-75
2021/07/01 12:26:49;;;;;;;12.00;11.00;;;15.70;1.00;;;;;;5091518;28;21303;-78
2021/07/01 12:29:20;;;;;;;12.37;11.17;;;15.70;1.00;;;;;;5085382;28;20446;-77
2021/07/01 12:31:48;;;;;;;11.73;10.60;;;15.70;1.00;;;;;;5083811;28;20494;-76
2021/07/01 12:34:20;;;;;;;11.87;10.80;;;15.80;1.00;;;;;;5091151;28;20464;-77
2021/07/01 12:36:59;;;;;;;10.80;9.83;;;15.80;1.00;;;;;;5084159;28;20486;-77
2021/07/01 12:39:27;;;;;;;13.00;11.80;;;15.80;1.00;;;;;;5087177;28;21207;-78
2021/07/01 12:42:18;;;;;;;10.73;9.83;;;15.90;1.00;;;;;;5088782;28;20577;-77
2021/07/01 12:44:47;;;;;;;13.80;12.60;;;15.90;1.00;;;;;;5086480;28;20513;-76
2021/07/01 12:47:17;;;;;;;12.10;11.00;;;16.00;1.00;;;;;;5090564;28;20467;-77
2021/07/01 12:49:47;;;;;;;11.73;10.63;;;16.00;1.00;;;;;;5086859;28;21679;-76
2021/07/01 12:52:15;;;;;;;12.70;11.40;;;16.00;1.00;;;;;;5088889;28;20415;-77
2021/07/01 12:54:56;;;;;;;11.20;10.20;;;16.00;1.00;;;;;;5093036;28;21338;-77
2021/07/01 12:57:23;;;;;;;9.90;9.00;;;16.10;1.00;;;;;;5095866;28;20555;-76
2021/07/01 12:59:51;;;;;;;11.13;9.90;;;15.90;1.00;;;;;;5088583;28;20997;-76